Time;durP1;ratioP1;P1;durP2;ratioP2;P2;SDS_P1;SDS_P2;PMS_P1;PMS_P2;Temp;Humidity;BMP_temperature;BMP_pressure;BME280_temperature;BME280_humidity;BME280_pressure;Samples;Min_cycle;Max_cycle;Signal;HPM_P1;HPM_P2
2023/10/27 00:00:35;;;;;;;7.10;1.60;;;10.10;99.90;;;;;;5028306;28;20127;-73
2023/10/27 00:03:01;;;;;;;8.30;1.42;;;10.00;99.90;;;;;;5012283;28;20489;-73
2023/10/27 00:05:27;;;;;;;5.57;1.27;;;10.00;99.90;;;;;;5029156;28;20030;-73
2023/10/27 00:07:52;;;;;;;4.22;1.35;;;9.90;99.90;;;;;;5014826;28;20041;-73
2023/10/27 00:10:18;;;;;;;8.68;1.50;;;9.90;99.90;;;;;;5010437;28;20036;-73
2023/10/27 00:12:44;;;;;;;4.72;1.30;;;9.80;99.90;;;;;;5011755;28;20037;-72
2023/10/27 00:15:10;;;;;;;6.40;2.33;;;9.80;99.90;;;;;;5015916;28;20449;-73
2023/10/27 00:17:35;;;;;;;4.60;1.33;;;9.80;99.90;;;;;;5010987;28;20053;-73
2023/10/27 00:20:02;;;;;;;5.22;1.40;;;9.70;99.90;;;;;;5019430;28;20026;-72
2023/10/27 00:22:28;;;;;;;5.88;1.45;;;9.70;99.90;;;;;;5017219;28;20109;-73
2023/10/27 00:24:54;;;;;;;8.05;1.50;;;9.70;99.90;;;;;;5012801;28;20129;-73
2023/10/27 00:27:22;;;;;;;5.30;1.33;;;9.70;99.90;;;;;;5008360;28;20417;-73
2023/10/27 00:29:48;;;;;;;3.63;1.42;;;9.70;99.90;;;;;;5009373;28;20042;-73
2023/10/27 00:32:14;;;;;;;6.43;1.85;;;9.60;99.90;;;;;;5015136;28;20542;-73
2023/10/27 00:34:39;;;;;;;9.18;1.60;;;9.60;99.90;;;;;;5023838;28;20048;-73
2023/10/27 00:37:05;;;;;;;5.35;1.63;;;9.60;99.90;;;;;;5030036;28;20030;-73
2023/10/27 00:39:30;;;;;;;4.80;1.77;;;9.50;99.90;;;;;;5024514;28;20836;-73
2023/10/27 00:41:56;;;;;;;5.60;1.45;;;9.50;99.90;;;;;;5020297;28;20521;-73
2023/10/27 00:44:22;;;;;;;9.90;1.85;;;9.50;99.90;;;;;;5006472;28;20542;-73
2023/10/27 00:46:49;;;;;;;7.43;1.60;;;9.40;99.90;;;;;;5010718;28;20078;-72
2023/10/27 00:49:15;;;;;;;7.70;1.83;;;9.30;99.90;;;;;;5019718;28;20120;-73
2023/10/27 00:51:41;;;;;;;6.30;2.10;;;9.30;99.90;;;;;;5029199;28;20585;-73
2023/10/27 00:54:11;;;;;;;5.47;1.40;;;9.30;99.90;;;;;;5016232;28;20251;-73
2023/10/27 00:56:37;;;;;;;9.20;1.60;;;9.30;99.90;;;;;;5009297;28;20033;-73
2023/10/27 00:59:03;;;;;;;5.05;1.48;;;9.20;99.90;;;;;;4992333;28;20080;-73
2023/10/27 01:01:29;;;;;;;6.35;1.60;;;9.20;99.90;;;;;;5008003;28;20045;-73
2023/10/27 01:03:58;;;;;;;9.00;2.10;;;9.20;99.90;;;;;;5024646;28;20440;-73
2023/10/27 01:06:24;;;;;;;6.53;1.67;;;9.20;99.90;;;;;;5016127;28;20037;-73
2023/10/27 01:08:49;;;;;;;8.15;1.95;;;9.20;99.90;;;;;;5009590;28;20045;-73
2023/10/27 01:11:16;;;;;;;5.35;2.20;;;9.10;99.90;;;;;;5022623;28;20026;-73
2023/10/27 01:13:42;;;;;;;7.20;1.85;;;9.20;99.90;;;;;;5012175;28;20115;-73
2023/10/27 01:16:07;;;;;;;6.72;1.85;;;9.10;99.90;;;;;;5012760;28;20041;-73
2023/10/27 01:18:33;;;;;;;9.18;1.88;;;9.10;99.90;;;;;;5022000;28;20864;-73
2023/10/27 01:20:59;;;;;;;4.82;1.85;;;9.10;99.90;;;;;;5015546;28;20105;-73
2023/10/27 01:23:25;;;;;;;6.15;2.15;;;9.10;99.90;;;;;;5023583;28;20145;-73
2023/10/27 01:25:51;;;;;;;8.52;2.50;;;9.10;99.90;;;;;;5022675;28;20034;-73
2023/10/27 01:28:17;;;;;;;6.75;1.83;;;9.20;99.90;;;;;;5007849;28;20034;-73
2023/10/27 01:30:43;;;;;;;7.00;2.25;;;9.10;99.90;;;;;;5011305;28;20053;-73
2023/10/27 01:33:08;;;;;;;7.20;2.33;;;9.10;99.90;;;;;;5009875;28;20033;-73
2023/10/27 01:35:35;;;;;;;13.60;2.60;;;9.10;99.90;;;;;;5011280;28;20128;-72
2023/10/27 01:38:01;;;;;;;6.10;2.20;;;9.10;99.90;;;;;;5008866;28;20026;-73
2023/10/27 01:40:27;;;;;;;8.05;2.20;;;9.10;99.90;;;;;;5017672;28;20033;-73
2023/10/27 01:42:53;;;;;;;6.40;2.13;;;9.10;99.90;;;;;;5023080;28;20069;-73
2023/10/27 01:45:18;;;;;;;6.18;1.80;;;9.10;99.90;;;;;;5019200;28;20177;-73
2023/10/27 01:47:44;;;;;;;7.07;2.00;;;9.10;99.90;;;;;;5028862;28;20053;-73
2023/10/27 01:50:10;;;;;;;7.78;2.63;;;9.10;99.90;;;;;;5017871;28;20025;-73
2023/10/27 01:52:35;;;;;;;6.38;1.73;;;9.10;99.90;;;;;;5016394;28;20714;-73
2023/10/27 01:55:01;;;;;;;11.85;2.28;;;9.10;99.90;;;;;;5008459;28;20030;-73
2023/10/27 01:57:27;;;;;;;5.78;2.03;;;9.10;99.90;;;;;;5019243;28;20033;-73
2023/10/27 01:59:52;;;;;;;5.95;2.63;;;9.10;99.90;;;;;;5022959;28;20022;-73
2023/10/27 02:02:18;;;;;;;5.53;1.48;;;9.10;99.90;;;;;;5015311;28;20034;-73
2023/10/27 02:04:44;;;;;;;7.95;1.60;;;9.00;99.90;;;;;;5016681;28;20141;-72
2023/10/27 02:07:10;;;;;;;6.93;1.75;;;9.00;99.90;;;;;;5009072;28;20109;-73
2023/10/27 02:09:35;;;;;;;4.57;1.42;;;9.00;99.90;;;;;;5004412;28;20030;-73
2023/10/27 02:12:02;;;;;;;7.13;1.48;;;9.00;99.90;;;;;;5005785;28;20113;-72
2023/10/27 02:14:28;;;;;;;7.10;1.58;;;9.00;99.90;;;;;;5014697;28;20049;-73
2023/10/27 02:16:54;;;;;;;6.13;1.30;;;9.00;99.90;;;;;;5008853;28;20111;-72
2023/10/27 02:19:20;;;;;;;5.97;1.23;;;9.00;99.90;;;;;;5014335;28;20643;-72
2023/10/27 02:21:48;;;;;;;10.30;1.50;;;9.00;99.90;;;;;;5011398;28;20455;-72
2023/10/27 02:24:14;;;;;;;4.82;1.45;;;9.00;99.90;;;;;;5012303;28;20037;-74
2023/10/27 02:26:39;;;;;;;5.20;1.30;;;9.10;99.90;;;;;;5011534;28;20745;-73
2023/10/27 02:29:05;;;;;;;3.20;1.02;;;9.10;99.90;;;;;;5012073;28;20026;-73
2023/10/27 02:31:31;;;;;;;5.18;1.25;;;9.10;99.90;;;;;;5013364;28;20038;-73
2023/10/27 02:33:56;;;;;;;3.38;0.95;;;9.00;99.90;;;;;;5012010;28;20042;-73
2023/10/27 02:36:22;;;;;;;7.93;1.30;;;9.00;99.90;;;;;;5011188;28;20469;-73
2023/10/27 02:38:48;;;;;;;4.82;0.93;;;9.00;99.90;;;;;;5005282;28;20033;-72
2023/10/27 02:41:13;;;;;;;4.82;1.20;;;9.00;99.90;;;;;;4983846;28;20030;-72
2023/10/27 02:43:39;;;;;;;4.75;1.10;;;9.00;99.90;;;;;;5009522;28;20072;-73
2023/10/27 02:46:05;;;;;;;6.20;1.20;;;8.90;99.90;;;;;;5011917;28;20118;-73
2023/10/27 02:48:31;;;;;;;3.47;1.10;;;8.90;99.90;;;;;;4993547;28;20492;-72
2023/10/27 02:50:57;;;;;;;7.50;1.10;;;9.00;99.90;;;;;;5012015;28;20466;-73
2023/10/27 02:53:23;;;;;;;3.22;0.90;;;8.90;99.90;;;;;;5011021;28;20038;-73
2023/10/27 02:55:49;;;;;;;5.22;1.20;;;8.90;99.90;;;;;;5011938;28;20490;-73
2023/10/27 02:58:15;;;;;;;1.38;0.60;;;8.90;99.90;;;;;;5011446;28;20041;-73
2023/10/27 03:00:44;;;;;;;4.78;1.00;;;8.80;99.90;;;;;;5010968;28;20030;-73
2023/10/27 03:03:10;;;;;;;4.22;1.10;;;8.90;99.90;;;;;;5011155;28;20179;-73
2023/10/27 03:05:36;;;;;;;7.65;1.30;;;8.90;99.90;;;;;;5008964;28;20122;-73
2023/10/27 03:08:03;;;;;;;4.28;1.00;;;8.90;99.90;;;;;;5008275;28;20544;-73
2023/10/27 03:10:29;;;;;;;8.15;1.20;;;8.90;99.90;;;;;;5010785;28;20804;-73
2023/10/27 03:12:54;;;;;;;3.15;0.90;;;8.90;99.90;;;;;;5019154;28;20062;-72
2023/10/27 03:15:20;;;;;;;5.70;1.15;;;8.90;99.90;;;;;;5010080;28;20034;-73
2023/10/27 03:17:46;;;;;;;21.10;1.90;;;8.90;99.90;;;;;;5010227;28;20095;-72
2023/10/27 03:20:12;;;;;;;52.25;2.00;;;8.90;99.90;;;;;;5011252;28;20144;-73
2023/10/27 03:22:38;;;;;;;13.30;0.98;;;8.80;99.90;;;;;;5008579;28;20221;-75
2023/10/27 03:25:04;;;;;;;11.40;1.23;;;8.80;99.90;;;;;;5011258;28;20049;-73
2023/10/27 03:27:32;;;;;;;3.92;1.13;;;8.80;99.90;;;;;;5012968;28;20030;-73
2023/10/27 03:29:58;;;;;;;7.10;1.90;;;8.90;99.90;;;;;;5011187;28;20550;-73
2023/10/27 03:32:24;;;;;;;4.10;1.55;;;8.90;99.90;;;;;;5010027;28;20415;-73
2023/10/27 03:34:50;;;;;;;5.68;1.38;;;9.00;99.90;;;;;;5010849;28;20091;-73
2023/10/27 03:37:15;;;;;;;7.03;1.50;;;9.00;99.90;;;;;;5010738;28;20037;-73
2023/10/27 03:39:42;;;;;;;5.18;1.30;;;9.00;99.90;;;;;;4992800;28;20083;-73
2023/10/27 03:42:08;;;;;;;6.20;1.35;;;9.00;99.90;;;;;;5010726;28;20038;-73
2023/10/27 03:44:35;;;;;;;5.53;1.23;;;9.00;99.90;;;;;;5003386;28;20046;-73
2023/10/27 03:47:01;;;;;;;3.80;1.10;;;9.10;99.90;;;;;;5009712;28;20145;-73
2023/10/27 03:49:27;;;;;;;2.78;0.90;;;9.00;99.90;;;;;;5010017;28;20125;-73
2023/10/27 03:51:53;;;;;;;6.50;1.80;;;8.90;99.90;;;;;;5010575;28;20401;-73
2023/10/27 03:54:19;;;;;;;5.60;1.20;;;9.00;99.90;;;;;;5010610;28;20121;-73
2023/10/27 03:56:45;;;;;;;4.03;1.35;;;9.00;99.90;;;;;;5009098;28;20033;-68
2023/10/27 03:59:10;;;;;;;3.90;1.40;;;9.00;99.90;;;;;;4997841;28;20153;-72
2023/10/27 04:01:40;;;;;;;3.63;1.20;;;9.00;99.90;;;;;;5010570;28;20155;-70
2023/10/27 04:04:05;;;;;;;7.50;1.20;;;9.00;99.90;;;;;;5010399;28;20030;-70
2023/10/27 04:06:31;;;;;;;4.88;1.45;;;9.00;99.90;;;;;;4992294;28;20040;-72
2023/10/27 04:08:58;;;;;;;8.75;1.80;;;9.00;99.90;;;;;;5010709;28;20030;-72
2023/10/27 04:11:23;;;;;;;4.60;1.30;;;9.10;99.90;;;;;;5019738;28;20084;-74
2023/10/27 04:13:49;;;;;;;4.88;1.50;;;9.10;99.90;;;;;;5029328;28;20092;-71
2023/10/27 04:16:15;;;;;;;8.10;1.70;;;9.10;99.90;;;;;;5010285;28;20057;-72
2023/10/27 04:18:40;;;;;;;5.95;1.70;;;9.10;99.90;;;;;;4991587;28;20711;-73
2023/10/27 04:21:06;;;;;;;8.00;1.58;;;9.10;99.90;;;;;;5011333;28;20034;-71
2023/10/27 04:23:31;;;;;;;9.82;1.85;;;9.10;99.90;;;;;;5018144;28;20040;-71
2023/10/27 04:25:57;;;;;;;5.28;1.58;;;9.10;99.90;;;;;;5026879;28;20042;-70
2023/10/27 04:28:23;;;;;;;5.93;1.80;;;9.10;99.90;;;;;;5009809;28;20076;-72
2023/10/27 04:30:48;;;;;;;8.23;1.70;;;9.10;99.90;;;;;;5009728;28;20030;-70
2023/10/27 04:33:15;;;;;;;8.75;1.50;;;9.10;99.90;;;;;;5008978;28;20604;-72
2023/10/27 04:35:42;;;;;;;7.75;2.13;;;9.10;99.90;;;;;;5008635;28;20048;-70
2023/10/27 04:38:07;;;;;;;9.75;3.03;;;9.10;99.90;;;;;;5027586;28;20034;-70
2023/10/27 04:40:34;;;;;;;5.15;2.33;;;9.10;99.90;;;;;;5021012;28;20522;-74
2023/10/27 04:43:00;;;;;;;5.57;1.80;;;9.10;99.90;;;;;;5008062;28;20105;-73
2023/10/27 04:45:26;;;;;;;8.02;1.92;;;9.20;99.90;;;;;;5006187;28;20429;-74
2023/10/27 04:47:52;;;;;;;4.22;1.60;;;9.10;99.90;;;;;;5009221;28;20462;-72
2023/10/27 04:50:19;;;;;;;8.65;2.10;;;9.10;99.90;;;;;;5009285;28;20553;-71
2023/10/27 04:52:47;;;;;;;5.07;1.80;;;9.10;99.90;;;;;;5009104;28;20045;-72
2023/10/27 04:55:13;;;;;;;8.63;2.70;;;9.10;99.90;;;;;;5009673;28;20442;-73
2023/10/27 04:57:38;;;;;;;5.05;2.28;;;9.00;99.90;;;;;;5008906;28;20053;-73
2023/10/27 05:00:05;;;;;;;5.28;2.30;;;9.10;99.90;;;;;;5009759;28;20049;-73
2023/10/27 05:02:31;;;;;;;7.57;2.13;;;9.10;99.90;;;;;;5008341;28;20032;-73
2023/10/27 05:04:56;;;;;;;7.53;2.35;;;9.10;99.90;;;;;;5009396;28;20463;-73
2023/10/27 05:07:22;;;;;;;5.95;2.40;;;9.20;99.90;;;;;;5009440;28;20037;-72
2023/10/27 05:09:49;;;;;;;10.68;2.97;;;9.10;99.90;;;;;;5008910;28;20030;-72
2023/10/27 05:12:15;;;;;;;5.07;1.70;;;9.10;99.90;;;;;;5009007;28;20482;-73
2023/10/27 05:14:41;;;;;;;3.53;1.63;;;9.10;99.90;;;;;;5006305;28;20046;-73
2023/10/27 05:17:07;;;;;;;4.75;1.80;;;9.10;99.90;;;;;;5008521;28;20231;-73
2023/10/27 05:19:34;;;;;;;5.43;2.05;;;9.10;99.90;;;;;;5007475;28;20038;-72
2023/10/27 05:22:03;;;;;;;6.78;2.10;;;9.10;99.90;;;;;;5017121;28;20084;-73
2023/10/27 05:24:28;;;;;;;6.00;2.10;;;9.10;99.90;;;;;;5003588;28;20046;-73
2023/10/27 05:26:54;;;;;;;8.40;1.98;;;9.10;99.90;;;;;;4972211;28;20093;-73
2023/10/27 05:29:20;;;;;;;3.75;1.30;;;9.10;99.90;;;;;;5005732;28;20026;-73
2023/10/27 05:31:46;;;;;;;6.82;1.80;;;9.10;99.90;;;;;;5008219;28;20033;-71
2023/10/27 05:34:12;;;;;;;7.38;1.80;;;9.10;99.90;;;;;;5008519;28;20113;-73
2023/10/27 05:36:38;;;;;;;7.50;1.55;;;9.10;99.90;;;;;;5007802;28;20112;-73
2023/10/27 05:39:03;;;;;;;4.82;1.70;;;9.00;99.90;;;;;;5008079;28;20088;-75
2023/10/27 05:41:29;;;;;;;6.53;1.33;;;9.10;99.90;;;;;;5008301;28;20048;-77
2023/10/27 05:43:55;;;;;;;3.83;1.60;;;9.10;99.90;;;;;;5009115;28;20045;-72
2023/10/27 05:46:21;;;;;;;3.35;1.08;;;9.10;99.90;;;;;;5008594;28;20104;-72
2023/10/27 05:48:47;;;;;;;4.88;1.20;;;9.10;99.90;;;;;;5007497;28;20029;-72
2023/10/27 05:51:12;;;;;;;4.40;1.40;;;9.00;99.90;;;;;;5008796;28;20026;-71
2023/10/27 05:53:38;;;;;;;4.28;1.38;;;9.10;99.90;;;;;;4990093;28;20151;-71
2023/10/27 05:56:04;;;;;;;4.63;1.52;;;9.10;99.90;;;;;;5024936;28;20025;-71
2023/10/27 05:58:33;;;;;;;30.70;1.85;;;9.10;99.90;;;;;;5007103;28;20058;-73
2023/10/27 06:01:00;;;;;;;6.07;1.30;;;9.00;99.90;;;;;;5009144;28;20091;-74
2023/10/27 06:03:25;;;;;;;3.85;1.38;;;8.90;99.90;;;;;;5008233;28;20041;-73
2023/10/27 06:05:52;;;;;;;7.53;1.17;;;8.90;99.90;;;;;;5007757;28;20049;-73
2023/10/27 06:08:18;;;;;;;3.90;1.23;;;8.90;99.90;;;;;;5007973;28;20037;-72
2023/10/27 06:10:44;;;;;;;7.80;1.35;;;8.90;99.90;;;;;;5007640;28;20723;-73
2023/10/27 06:13:10;;;;;;;3.80;1.50;;;8.90;99.90;;;;;;5004633;28;20211;-73
2023/10/27 06:15:35;;;;;;;5.97;1.60;;;8.90;99.90;;;;;;5013921;28;20037;-72
2023/10/27 06:18:01;;;;;;;5.90;1.70;;;8.90;99.90;;;;;;5010188;28;20490;-71
2023/10/27 06:20:27;;;;;;;4.10;1.40;;;8.90;99.90;;;;;;5009828;28;20053;-74
2023/10/27 06:22:53;;;;;;;23.38;1.80;;;9.00;99.90;;;;;;5000884;28;20038;-77
2023/10/27 06:25:18;;;;;;;8.57;1.50;;;9.00;99.90;;;;;;4987009;28;20036;-72
2023/10/27 06:27:44;;;;;;;4.05;1.85;;;9.00;99.90;;;;;;4986388;28;20041;-74
2023/10/27 06:30:10;;;;;;;3.63;1.90;;;9.00;99.90;;;;;;5008467;28;20149;-71
2023/10/27 06:32:36;;;;;;;5.53;2.33;;;9.00;99.90;;;;;;4990089;28;20107;-71
2023/10/27 06:35:03;;;;;;;5.38;2.20;;;9.00;99.90;;;;;;5008467;28;20088;-71
2023/10/27 06:37:30;;;;;;;9.27;1.92;;;9.00;99.90;;;;;;5008625;28;20038;-74
2023/10/27 06:39:58;;;;;;;4.78;1.63;;;9.00;99.90;;;;;;5006087;28;20053;-73
2023/10/27 06:42:25;;;;;;;4.82;1.63;;;9.00;99.90;;;;;;5012718;28;20489;-73
2023/10/27 06:44:51;;;;;;;7.47;2.03;;;9.10;99.90;;;;;;5005609;28;20042;-73
2023/10/27 06:47:18;;;;;;;3.92;1.70;;;9.10;99.90;;;;;;4991205;28;20037;-72
2023/10/27 06:49:44;;;;;;;4.88;1.42;;;9.10;99.90;;;;;;5006422;28;20041;-73
2023/10/27 06:52:10;;;;;;;5.70;1.50;;;9.10;99.90;;;;;;5008212;28;20030;-74
2023/10/27 06:54:36;;;;;;;5.20;1.90;;;9.10;99.90;;;;;;5007369;28;20045;-70
2023/10/27 06:57:01;;;;;;;3.70;1.55;;;9.10;99.90;;;;;;5008231;28;20049;-73
2023/10/27 06:59:30;;;;;;;2.97;1.55;;;9.10;99.90;;;;;;5014022;28;20045;-72
2023/10/27 07:01:55;;;;;;;5.68;2.38;;;9.00;99.90;;;;;;5011370;28;20145;-73
2023/10/27 07:04:21;;;;;;;4.28;1.95;;;9.10;99.90;;;;;;5008090;28;20117;-75
2023/10/27 07:06:47;;;;;;;5.45;1.90;;;9.10;99.90;;;;;;4990842;28;20022;-72
2023/10/27 07:09:12;;;;;;;6.57;2.20;;;9.10;99.90;;;;;;5011677;28;20467;-72
2023/10/27 07:11:38;;;;;;;5.50;1.92;;;9.00;99.90;;;;;;5006501;28;20104;-73
2023/10/27 07:14:04;;;;;;;3.33;1.77;;;9.00;99.90;;;;;;5013506;28;20124;-72
2023/10/27 07:16:30;;;;;;;4.90;1.90;;;9.10;99.90;;;;;;5010779;28;20062;-73
2023/10/27 07:18:56;;;;;;;3.58;1.77;;;9.00;99.90;;;;;;5010430;28;20092;-72
2023/10/27 07:21:22;;;;;;;3.45;1.60;;;9.10;99.90;;;;;;5011495;28;20164;-75
2023/10/27 07:23:48;;;;;;;5.00;1.58;;;9.10;99.90;;;;;;5011387;28;20850;-73
2023/10/27 07:26:15;;;;;;;1.83;1.10;;;9.20;99.90;;;;;;5031254;28;20688;-75
2023/10/27 07:28:41;;;;;;;5.00;1.60;;;9.40;99.90;;;;;;5030486;28;20025;-73
2023/10/27 07:31:08;;;;;;;3.95;1.60;;;9.50;99.90;;;;;;5015564;28;20397;-73
2023/10/27 07:33:35;;;;;;;3.92;1.90;;;9.60;99.90;;;;;;5010624;28;20099;-78
2023/10/27 07:36:02;;;;;;;6.20;1.65;;;9.60;99.90;;;;;;5011353;28;20022;-74
2023/10/27 07:38:28;;;;;;;4.40;1.83;;;9.70;99.90;;;;;;5010754;28;20034;-72
2023/10/27 07:40:58;;;;;;;5.10;1.88;;;9.60;99.90;;;;;;4994240;28;20141;-73
2023/10/27 07:43:24;;;;;;;4.05;2.08;;;9.70;99.90;;;;;;5012066;28;20092;-73
2023/10/27 07:45:50;;;;;;;2.75;1.77;;;9.60;99.90;;;;;;5010190;28;20057;-73
2023/10/27 07:48:15;;;;;;;7.95;1.85;;;9.70;99.90;;;;;;5011221;28;20041;-74
2023/10/27 07:50:42;;;;;;;4.50;1.95;;;9.70;99.90;;;;;;5010318;28;20029;-73
2023/10/27 07:53:08;;;;;;;7.30;2.38;;;9.70;99.90;;;;;;4992930;28;20033;-74
2023/10/27 07:55:35;;;;;;;2.88;1.67;;;9.70;99.90;;;;;;5021957;28;20045;-79
2023/10/27 07:58:04;;;;;;;3.55;1.90;;;9.70;99.90;;;;;;5030467;28;20524;-75
2023/10/27 08:00:33;;;;;;;3.05;1.80;;;9.80;99.90;;;;;;5028865;28;20025;-73
2023/10/27 08:02:59;;;;;;;3.70;1.92;;;9.80;99.90;;;;;;5018279;28;20029;-75
2023/10/27 08:05:25;;;;;;;5.03;2.25;;;9.90;99.90;;;;;;5010410;28;20443;-72
2023/10/27 08:07:50;;;;;;;9.25;2.80;;;9.90;99.90;;;;;;5008564;28;20357;-71
2023/10/27 08:10:16;;;;;;;6.55;2.60;;;10.00;99.90;;;;;;5010511;28;20030;-73
2023/10/27 08:12:43;;;;;;;5.03;2.58;;;10.00;99.90;;;;;;5007935;28;20038;-72
2023/10/27 08:15:09;;;;;;;6.95;2.33;;;10.00;99.90;;;;;;4998135;28;20548;-70
2023/10/27 08:17:35;;;;;;;5.43;2.00;;;10.00;99.90;;;;;;5001731;28;20518;-72
2023/10/27 08:20:02;;;;;;;3.97;2.10;;;10.00;99.90;;;;;;5010122;28;20037;-72
2023/10/27 08:22:27;;;;;;;3.42;1.67;;;10.10;99.90;;;;;;5009561;28;20049;-74
2023/10/27 08:24:53;;;;;;;6.00;1.80;;;10.10;99.90;;;;;;5009486;28;20919;-71
2023/10/27 08:27:19;;;;;;;4.25;1.50;;;10.20;99.90;;;;;;5010514;28;20681;-77
2023/10/27 08:29:45;;;;;;;3.60;1.40;;;10.30;99.90;;;;;;5007838;28;20034;-74
2023/10/27 08:32:11;;;;;;;2.45;1.23;;;10.40;99.90;;;;;;5010434;28;20026;-74
2023/10/27 08:34:38;;;;;;;3.40;1.08;;;10.40;99.90;;;;;;5009646;28;20034;-75
2023/10/27 08:37:03;;;;;;;2.25;1.30;;;10.40;99.90;;;;;;5010226;28;20026;-73
2023/10/27 08:39:33;;;;;;;2.05;1.13;;;10.40;99.90;;;;;;5009874;28;20430;-71
2023/10/27 08:41:59;;;;;;;2.47;1.08;;;10.40;99.90;;;;;;5009712;28;20198;-74
2023/10/27 08:44:26;;;;;;;1.60;0.90;;;10.40;99.90;;;;;;5007740;28;20038;-73
2023/10/27 08:46:53;;;;;;;2.50;1.00;;;10.50;99.90;;;;;;5009370;28;20361;-72
2023/10/27 08:49:19;;;;;;;3.70;1.05;;;10.50;99.90;;;;;;5009658;28;20092;-72
2023/10/27 08:51:46;;;;;;;3.00;1.10;;;10.40;99.90;;;;;;5008958;28;20037;-73
2023/10/27 08:54:11;;;;;;;4.30;0.82;;;10.50;99.90;;;;;;5009674;28;20037;-77
2023/10/27 08:56:37;;;;;;;3.15;0.88;;;10.40;99.90;;;;;;5008723;28;20084;-67
2023/10/27 08:59:06;;;;;;;2.03;0.80;;;10.40;99.90;;;;;;5007570;28;20030;-66
2023/10/27 09:01:32;;;;;;;1.60;0.77;;;10.40;99.90;;;;;;5009457;28;20491;-66
2023/10/27 09:04:15;;;;;;;1.65;0.70;;;10.40;99.90;;;;;;5007935;28;20029;-65
2023/10/27 09:06:42;;;;;;;1.48;0.50;;;10.40;99.90;;;;;;4989439;28;20113;-66
2023/10/27 09:09:11;;;;;;;0.60;0.35;;;10.50;99.90;;;;;;5000056;28;20037;-67
2023/10/27 09:11:42;;;;;;;1.05;0.57;;;10.40;99.90;;;;;;4991387;28;20030;-67
2023/10/27 09:14:23;;;;;;;;;;;10.40;99.90;;;;;;5023462;28;20053;-68
2023/10/27 09:16:51;;;;;;;0.77;0.30;;;10.50;99.90;;;;;;5008891;28;19926;-66
2023/10/27 09:19:20;;;;;;;0.85;0.45;;;10.50;99.90;;;;;;5008628;28;20026;-66
2023/10/27 09:21:45;;;;;;;1.58;0.50;;;10.40;99.90;;;;;;5021645;28;20025;-67
2023/10/27 09:24:21;;;;;;;3.00;0.50;;;10.60;99.90;;;;;;5010483;28;20373;-67
2023/10/27 09:26:46;;;;;;;0.77;0.38;;;10.80;99.90;;;;;;5007569;28;20073;-67
2023/10/27 09:29:12;;;;;;;0.60;0.30;;;10.80;99.90;;;;;;5008755;28;20065;-68
2023/10/27 09:31:38;;;;;;;1.25;0.50;;;10.80;99.90;;;;;;5017985;28;20041;-65
2023/10/27 09:34:26;;;;;;;1.95;0.43;;;10.70;99.90;;;;;;5023426;28;20041;-68
2023/10/27 09:36:54;;;;;;;2.28;0.32;;;10.60;99.90;;;;;;4993190;28;20041;-66
2023/10/27 09:39:22;;;;;;;2.03;0.40;;;10.50;99.90;;;;;;5008102;28;20471;-67
2023/10/27 09:42:01;;;;;;;1.05;0.40;;;10.40;99.90;;;;;;5008465;28;20408;-66
2023/10/27 09:45:09;;;;;;;0.68;0.43;;;10.40;99.90;;;;;;5008964;28;20488;-66
2023/10/27 09:47:47;;;;;;;1.30;0.40;;;10.40;99.90;;;;;;4957608;28;20108;-67
2023/10/27 09:50:14;;;;;;;0.80;0.43;;;10.30;99.90;;;;;;5002401;28;20092;-68
2023/10/27 09:52:43;;;;;;;1.15;0.52;;;10.40;99.90;;;;;;5017774;28;20029;-67
2023/10/27 09:55:13;;;;;;;1.88;0.50;;;10.40;99.90;;;;;;5015877;28;20084;-66
2023/10/27 09:57:40;;;;;;;1.55;0.40;;;10.40;99.90;;;;;;5008716;28;20069;-66
2023/10/27 10:00:08;;;;;;;1.33;0.40;;;10.40;99.90;;;;;;5008270;28;20079;-68
2023/10/27 10:02:35;;;;;;;1.13;0.50;;;10.40;99.90;;;;;;5008074;28;20030;-66
2023/10/27 10:05:01;;;;;;;1.02;0.38;;;10.40;99.90;;;;;;4998803;28;20041;-70
2023/10/27 10:07:34;;;;;;;2.22;0.35;;;10.40;99.90;;;;;;5009111;28;20022;-67
2023/10/27 10:10:37;;;;;;;0.60;0.30;;;10.40;99.90;;;;;;5007638;28;20368;-69
2023/10/27 10:13:12;;;;;;;1.77;0.38;;;10.40;99.90;;;;;;5007811;28;20046;-67
2023/10/27 10:15:45;;;;;;;0.80;0.52;;;10.30;99.90;;;;;;5008030;28;20096;-69
2023/10/27 10:18:20;;;;;;;2.75;0.75;;;10.30;99.90;;;;;;4990101;28;20046;-70
2023/10/27 10:20:49;;;;;;;1.38;0.60;;;10.30;99.90;;;;;;5002449;28;20145;-70
2023/10/27 10:23:16;;;;;;;2.35;1.10;;;10.20;99.90;;;;;;4988366;28;20023;-70
2023/10/27 10:25:55;;;;;;;2.40;0.95;;;10.20;99.90;;;;;;5003587;28;20483;-69
2023/10/27 10:28:34;;;;;;;1.27;0.70;;;10.30;99.90;;;;;;5007774;28;20057;-70
2023/10/27 10:31:17;;;;;;;2.25;0.90;;;10.20;99.90;;;;;;4999826;28;20030;-70
2023/10/27 10:33:45;;;;;;;2.85;0.93;;;10.20;99.90;;;;;;5001112;28;20069;-70
2023/10/27 10:36:12;;;;;;;4.30;0.98;;;10.20;99.90;;;;;;5005195;28;20038;-68
2023/10/27 10:38:39;;;;;;;1.40;0.68;;;10.20;99.90;;;;;;5008201;28;20034;-65
2023/10/27 10:41:05;;;;;;;1.27;0.57;;;10.20;99.90;;;;;;5003537;28;20109;-68
2023/10/27 10:43:36;;;;;;;1.70;0.60;;;10.20;99.90;;;;;;5010025;28;20382;-69
2023/10/27 10:46:06;;;;;;;1.83;0.32;;;10.20;99.90;;;;;;5008279;28;20026;-66
2023/10/27 10:48:34;;;;;;;0.43;0.22;;;10.40;99.90;;;;;;5007026;28;20026;-66
2023/10/27 10:51:15;;;;;;;0.82;0.30;;;10.50;99.90;;;;;;5007183;28;20041;-65
2023/10/27 10:53:43;;;;;;;0.73;0.35;;;10.70;99.90;;;;;;5007801;28;20033;-67
2023/10/27 10:56:09;;;;;;;1.85;0.60;;;10.70;99.90;;;;;;5007915;28;20046;-66
2023/10/27 10:58:36;;;;;;;2.58;1.00;;;10.60;99.90;;;;;;5010865;28;20749;-68
2023/10/27 11:01:03;;;;;;;2.17;1.00;;;10.60;99.90;;;;;;5007258;28;20026;-66
2023/10/27 11:03:34;;;;;;;4.28;1.00;;;10.60;99.90;;;;;;4991830;28;20037;-67
2023/10/27 11:06:05;;;;;;;8.55;1.27;;;10.50;99.90;;;;;;5009438;28;20025;-68
2023/10/27 11:08:37;;;;;;;5.53;1.52;;;10.50;99.90;;;;;;5007651;28;20045;-67
2023/10/27 11:11:07;;;;;;;3.38;1.25;;;10.50;99.90;;;;;;5004183;28;20100;-67
2023/10/27 11:13:38;;;;;;;;;;;10.50;99.90;;;;;;5010682;28;20076;-68
2023/10/27 11:16:12;;;;;;;4.07;1.45;;;10.60;99.90;;;;;;5008111;28;19913;-65
2023/10/27 11:18:38;;;;;;;3.70;1.52;;;10.60;99.90;;;;;;5009740;28;20050;-67
2023/10/27 11:21:04;;;;;;;5.13;1.52;;;10.60;99.90;;;;;;5005989;28;20096;-68
2023/10/27 11:23:31;;;;;;;4.45;1.30;;;10.50;99.90;;;;;;5008562;28;20042;-67
2023/10/27 11:26:05;;;;;;;4.15;1.90;;;10.60;99.90;;;;;;4986868;28;20440;-66
2023/10/27 11:28:37;;;;;;;4.30;1.48;;;10.60;99.90;;;;;;5005670;28;20028;-67
2023/10/27 11:31:08;;;;;;;4.95;1.05;;;10.80;99.90;;;;;;5009292;28;20053;-67
2023/10/27 11:33:55;;;;;;;8.23;1.63;;;11.10;99.90;;;;;;5009633;28;20486;-66
2023/10/27 11:36:21;;;;;;;4.45;1.20;;;11.20;99.90;;;;;;5002391;28;20026;-67
2023/10/27 11:38:47;;;;;;;2.95;1.10;;;11.30;99.90;;;;;;5008884;28;20052;-67
2023/10/27 11:41:12;;;;;;;5.78;1.08;;;11.30;99.90;;;;;;5007403;28;20044;-67
2023/10/27 11:43:40;;;;;;;4.10;1.02;;;11.50;99.90;;;;;;5007024;28;20041;-67
2023/10/27 11:46:11;;;;;;;4.80;1.40;;;11.80;99.90;;;;;;5003111;28;20645;-67
2023/10/27 11:48:36;;;;;;;;;;;11.80;99.90;;;;;;5011886;28;20029;-66
2023/10/27 11:51:02;;;;;;;5.80;1.20;;;11.70;99.90;;;;;;5001788;28;20354;-66
2023/10/27 11:53:27;;;;;;;2.92;1.08;;;11.70;99.90;;;;;;4997580;28;20053;-67
2023/10/27 11:55:53;;;;;;;4.20;1.58;;;11.60;99.90;;;;;;5008656;28;20034;-66
2023/10/27 11:58:19;;;;;;;6.32;1.50;;;11.50;99.90;;;;;;5010441;28;20026;-66
2023/10/27 12:00:44;;;;;;;5.15;1.35;;;11.60;99.90;;;;;;5009962;28;20662;-67
2023/10/27 12:03:10;;;;;;;6.85;1.50;;;11.60;99.90;;;;;;5009383;28;20030;-66
2023/10/27 12:05:35;;;;;;;3.25;1.27;;;11.50;99.90;;;;;;5008945;28;20038;-66
2023/10/27 12:08:01;;;;;;;3.88;1.30;;;11.50;99.90;;;;;;5009396;28;20454;-66
2023/10/27 12:10:26;;;;;;;4.85;1.40;;;11.40;99.90;;;;;;5006649;28;20021;-67
2023/10/27 12:12:52;;;;;;;7.65;1.40;;;11.40;99.90;;;;;;4995577;28;20104;-65
2023/10/27 12:15:18;;;;;;;5.32;1.38;;;11.40;99.90;;;;;;5008572;28;20049;-66
2023/10/27 12:17:43;;;;;;;7.28;1.30;;;11.40;99.90;;;;;;5006207;28;20031;-66
2023/10/27 12:20:10;;;;;;;7.05;1.30;;;11.50;99.90;;;;;;5008386;28;20097;-66
2023/10/27 12:22:36;;;;;;;6.68;1.20;;;11.90;99.90;;;;;;4990660;28;20113;-66
2023/10/27 12:25:02;;;;;;;5.40;1.10;;;12.20;99.90;;;;;;5008130;28;20117;-66
2023/10/27 12:27:27;;;;;;;6.40;1.27;;;12.60;99.90;;;;;;5009931;28;20026;-66
2023/10/27 12:29:53;;;;;;;4.70;1.27;;;12.40;99.90;;;;;;5007327;28;20029;-66
2023/10/27 12:32:19;;;;;;;2.83;1.30;;;12.30;99.90;;;;;;5008786;28;20029;-66
2023/10/27 12:34:45;;;;;;;2.85;1.10;;;12.20;99.90;;;;;;5009799;28;20033;-65
2023/10/27 12:37:11;;;;;;;7.22;1.10;;;12.00;99.90;;;;;;5000800;28;20037;-66
2023/10/27 12:39:36;;;;;;;5.63;1.20;;;11.90;99.90;;;;;;5009173;28;20033;-66
2023/10/27 12:42:05;;;;;;;6.57;1.40;;;11.90;99.90;;;;;;5006208;28;20941;-66
2023/10/27 12:44:31;;;;;;;5.95;1.20;;;11.80;99.90;;;;;;5009955;28;20046;-66
2023/10/27 12:46:56;;;;;;;3.65;1.10;;;11.80;99.90;;;;;;4988641;28;20489;-66
2023/10/27 12:49:22;;;;;;;6.13;1.20;;;12.00;99.90;;;;;;5001578;28;20034;-66
2023/10/27 12:51:48;;;;;;;4.03;1.17;;;11.90;99.90;;;;;;5006044;28;20474;-66